createdAt,value
2023-01-01T00:00:52.594Z,100758.34
2023-01-01T00:03:23.305Z,100754.22
2023-01-01T00:05:52.423Z,100782.84
2023-01-01T00:08:21.475Z,100695.13
2023-01-01T00:10:50.686Z,100747.28
2023-01-01T00:13:19.929Z,100758.19
2023-01-01T00:15:49.067Z,100775.94
2023-01-01T00:18:18.249Z,100784.69
2023-01-01T00:20:48.680Z,100782.28
2023-01-01T00:23:18.470Z,100773.50
2023-01-01T00:25:47.593Z,100767.22
2023-01-01T00:28:16.912Z,100736.88
2023-01-01T00:30:46.012Z,100762.00
2023-01-01T00:33:15.061Z,100755.94
2023-01-01T00:35:44.230Z,100747.38
2023-01-01T00:38:14.680Z,100760.88
2023-01-01T00:40:43.834Z,100757.69
2023-01-01T00:43:12.995Z,100759.31
2023-01-01T00:45:42.185Z,100743.19
2023-01-01T00:48:11.122Z,100716.31
2023-01-01T00:50:40.345Z,100747.91
2023-01-01T00:53:09.656Z,100728.31
2023-01-01T00:55:40.494Z,100734.91
2023-01-01T00:58:09.779Z,100728.53
2023-01-01T01:00:39.283Z,100731.25
2023-01-01T01:03:08.441Z,100721.88
2023-01-01T01:05:40.089Z,100750.84
2023-01-01T01:08:09.061Z,100749.94
2023-01-01T01:10:39.569Z,100753.59
2023-01-01T01:13:08.600Z,100747.41
2023-01-01T01:15:39.118Z,100749.56
2023-01-01T01:18:08.107Z,100751.31
2023-01-01T01:20:37.258Z,100768.81
2023-01-01T01:23:06.522Z,100754.28
2023-01-01T01:25:35.578Z,100707.56
2023-01-01T01:28:06.149Z,100751.88
2023-01-01T01:30:35.296Z,100734.19
2023-01-01T01:33:04.488Z,100721.25
2023-01-01T01:35:34.120Z,100744.91
2023-01-01T01:38:03.724Z,100702.59
2023-01-01T01:40:32.881Z,100740.56
2023-01-01T01:43:01.813Z,100746.88
2023-01-01T01:45:33.615Z,100741.94
2023-01-01T01:48:03.124Z,100704.03
2023-01-01T01:50:35.055Z,100734.66
2023-01-01T01:53:08.759Z,100749.47
2023-01-01T01:55:39.349Z,100747.72
2023-01-01T01:58:10.918Z,100747.63
2023-01-01T02:00:41.574Z,100759.78
2023-01-01T02:03:13.968Z,100692.59
2023-01-01T02:05:44.128Z,100699.47
2023-01-01T02:08:16.014Z,100714.66
2023-01-01T02:10:45.164Z,100715.44
2023-01-01T02:13:15.423Z,100620.38
2023-01-01T02:15:54.411Z,100669.28
2023-01-01T02:18:28.595Z,100703.19
2023-01-01T02:21:03.929Z,100718.91
2023-01-01T02:24:02.495Z,100721.72
2023-01-01T02:26:45.894Z,100717.47
2023-01-01T02:29:37.606Z,100722.13
2023-01-01T02:32:11.627Z,100714.31
2023-01-01T02:34:44.908Z,100735.97
2023-01-01T02:37:16.971Z,100721.06
2023-01-01T02:39:50.176Z,100685.03
2023-01-01T02:42:20.745Z,100705.09
2023-01-01T02:44:54.241Z,100672.72
2023-01-01T02:47:23.376Z,100722.59
2023-01-01T02:49:59.831Z,100726.16
2023-01-01T02:53:04.121Z,100705.75
2023-01-01T02:55:45.420Z,100706.19
2023-01-01T02:58:39.882Z,100709.75
2023-01-01T03:01:20.755Z,100674.16
2023-01-01T03:03:58.364Z,100709.38
2023-01-01T03:06:35.602Z,100709.16
2023-01-01T03:09:16.406Z,100701.28
2023-01-01T03:11:56.050Z,100712.59
2023-01-01T03:14:32.335Z,100718.81
2023-01-01T03:17:09.670Z,100692.16
2023-01-01T03:19:41.525Z,100707.09
2023-01-01T03:22:14.435Z,100714.44
2023-01-01T03:24:48.538Z,100667.63
2023-01-01T03:27:21.896Z,100693.38
2023-01-01T03:29:54.050Z,100671.63
2023-01-01T03:32:50.734Z,100728.25
2023-01-01T03:35:21.332Z,100723.75
2023-01-01T03:37:52.505Z,100689.38
2023-01-01T03:40:23.388Z,100676.38
2023-01-01T03:42:56.486Z,100699.63
2023-01-01T03:45:30.712Z,100682.78
2023-01-01T03:48:01.835Z,100719.75
2023-01-01T03:50:54.266Z,100707.72
2023-01-01T03:53:34.913Z,100723.06
2023-01-01T03:56:15.170Z,100722.22
2023-01-01T03:58:51.421Z,100723.16
2023-01-01T04:01:27.532Z,100725.22
2023-01-01T04:04:00.789Z,100748.66
2023-01-01T04:06:30.239Z,100734.56
2023-01-01T04:09:02.333Z,100726.25
2023-01-01T04:11:51.170Z,100735.97
2023-01-01T04:14:29.494Z,100657.63
2023-01-01T04:16:59.165Z,100721.34
2023-01-01T04:19:29.960Z,100729.88
2023-01-01T04:21:59.295Z,100708.34
2023-01-01T04:24:28.418Z,100695.66
2023-01-01T04:26:57.755Z,100720.47
2023-01-01T04:29:27.107Z,100719.31
2023-01-01T04:31:56.388Z,100691.69
2023-01-01T04:34:26.091Z,100730.91
2023-01-01T04:36:56.756Z,100711.56
2023-01-01T04:39:25.946Z,100724.28
2023-01-01T04:41:55.437Z,100719.66
2023-01-01T04:44:26.957Z,100693.00
2023-01-01T04:47:00.076Z,100736.91
2023-01-01T04:49:31.405Z,100721.56
2023-01-01T04:52:03.139Z,100699.16
2023-01-01T04:54:32.343Z,100705.97
2023-01-01T04:57:01.470Z,100737.63
2023-01-01T04:59:31.515Z,100727.31
2023-01-01T05:02:00.698Z,100731.44
2023-01-01T05:04:31.323Z,100736.13
2023-01-01T05:07:01.913Z,100693.22
2023-01-01T05:09:31.331Z,100730.38
2023-01-01T05:12:01.265Z,100717.59
2023-01-01T05:14:31.189Z,100737.88
2023-01-01T05:17:00.603Z,100739.91
2023-01-01T05:19:29.978Z,100740.53
2023-01-01T05:22:00.266Z,100739.28
2023-01-01T05:24:36.498Z,100709.44
2023-01-01T05:27:05.247Z,100741.38
2023-01-01T05:29:37.103Z,100738.63
2023-01-01T05:37:03.545Z,100736.28
2023-01-01T05:39:34.011Z,100747.16
2023-01-01T05:42:03.209Z,100738.84
2023-01-01T05:44:32.817Z,100740.63
2023-01-01T05:47:02.125Z,100743.75
2023-01-01T05:49:35.914Z,100700.69
2023-01-01T05:52:07.955Z,100732.22
2023-01-01T05:54:41.141Z,100730.53
2023-01-01T05:57:10.543Z,100752.81
2023-01-01T05:59:43.069Z,100769.34
2023-01-01T06:02:12.396Z,100765.50
2023-01-01T06:04:42.071Z,100753.78
2023-01-01T06:07:15.678Z,100729.88
2023-01-01T06:09:48.726Z,100694.44
2023-01-01T06:12:18.069Z,100779.56
2023-01-01T06:14:47.406Z,100765.28
2023-01-01T06:17:16.826Z,100736.91
2023-01-01T06:19:45.955Z,100770.31
2023-01-01T06:22:15.224Z,100743.75
2023-01-01T06:24:45.815Z,100773.19
2023-01-01T06:27:15.032Z,100647.38
2023-01-01T06:29:44.230Z,100735.44
2023-01-01T06:32:13.568Z,100744.91
2023-01-01T06:34:44.612Z,100765.69
2023-01-01T06:37:13.912Z,100719.00
2023-01-01T06:39:43.477Z,100744.03
2023-01-01T06:42:14.308Z,100761.22
2023-01-01T06:44:43.417Z,100739.63
2023-01-01T06:47:12.991Z,100760.72
2023-01-01T06:49:42.180Z,100767.81
2023-01-01T06:52:12.627Z,100766.84
2023-01-01T06:54:41.882Z,100739.38
2023-01-01T06:57:11.250Z,100766.09
2023-01-01T06:59:41.757Z,100578.53
2023-01-01T07:02:12.917Z,100757.78
2023-01-01T07:04:42.274Z,100725.28
2023-01-01T07:07:13.202Z,100780.16
2023-01-01T07:09:42.811Z,100784.69
2023-01-01T07:12:11.976Z,100774.81
2023-01-01T07:14:42.805Z,100742.03
2023-01-01T07:17:12.091Z,100757.38
2023-01-01T07:19:41.901Z,100795.91
2023-01-01T07:22:12.464Z,100769.50
2023-01-01T07:24:41.833Z,100741.88
2023-01-01T07:27:10.949Z,100651.13
2023-01-01T07:29:39.986Z,100749.84
2023-01-01T07:32:14.442Z,100778.19
2023-01-01T07:34:48.836Z,100778.72
2023-01-01T07:37:20.646Z,100776.72
2023-01-01T07:39:49.928Z,100770.34
2023-01-01T07:42:19.327Z,100772.84
2023-01-01T07:44:48.433Z,100759.47
2023-01-01T07:47:22.874Z,100775.03
2023-01-01T07:49:52.678Z,100749.53
2023-01-01T07:52:22.368Z,100776.03
2023-01-01T07:54:52.163Z,100775.63
2023-01-01T07:57:22.554Z,100778.38
2023-01-01T07:59:51.684Z,100702.91
2023-01-01T08:02:22.423Z,100776.47
2023-01-01T08:04:51.630Z,100783.63
2023-01-01T08:07:26.285Z,100768.88
2023-01-01T08:09:55.780Z,100769.41
2023-01-01T08:12:25.304Z,100732.56
2023-01-01T08:14:54.939Z,100766.16
2023-01-01T08:17:25.348Z,100765.47
2023-01-01T08:19:54.711Z,100754.13
2023-01-01T08:22:25.890Z,100766.16
2023-01-01T08:24:55.348Z,100764.50
2023-01-01T08:27:24.613Z,100699.78
2023-01-01T08:29:55.806Z,100755.69
2023-01-01T08:32:26.679Z,100767.41
2023-01-01T08:34:56.259Z,100778.78
2023-01-01T08:37:25.680Z,100772.47
2023-01-01T08:39:56.435Z,100742.16
2023-01-01T08:42:25.582Z,100760.09
2023-01-01T08:44:54.775Z,100747.94
2023-01-01T08:47:27.268Z,100748.63
2023-01-01T08:49:56.611Z,100664.41
2023-01-01T08:52:25.919Z,100726.69
2023-01-01T08:54:54.965Z,100754.75
2023-01-01T08:57:24.695Z,100734.81
2023-01-01T08:59:53.835Z,100678.41
2023-01-01T09:02:23.452Z,100708.06
2023-01-01T09:04:56.625Z,100748.44
2023-01-01T09:07:25.998Z,100717.28
2023-01-01T09:09:55.786Z,100675.94
2023-01-01T09:12:25.324Z,100655.81
2023-01-01T09:14:54.557Z,100748.66
2023-01-01T09:17:24.648Z,100695.13
2023-01-01T09:19:55.119Z,100699.94
2023-01-01T09:22:24.475Z,100734.22
2023-01-01T09:24:53.929Z,100724.84
2023-01-01T09:27:23.448Z,100727.63
2023-01-01T09:29:52.667Z,100711.09
2023-01-01T09:32:23.843Z,100731.38
2023-01-01T09:34:52.882Z,100696.50
2023-01-01T09:37:23.503Z,100712.88
2023-01-01T09:39:52.971Z,100672.34
2023-01-01T09:42:35.475Z,100694.31
2023-01-01T09:45:22.681Z,100685.41
2023-01-01T09:47:55.086Z,100729.75
2023-01-01T09:50:26.538Z,100686.22
2023-01-01T09:52:59.659Z,100719.81
2023-01-01T09:55:31.849Z,100710.03
2023-01-01T09:58:01.287Z,100696.00
2023-01-01T10:00:36.131Z,100723.72
2023-01-01T10:03:21.877Z,100730.50
2023-01-01T10:05:58.228Z,100703.41
2023-01-01T10:08:41.703Z,100645.25
2023-01-01T10:11:20.235Z,100710.56
2023-01-01T10:13:50.921Z,100681.25
2023-01-01T10:16:31.904Z,100689.91
2023-01-01T10:19:08.675Z,100685.63
2023-01-01T10:21:47.277Z,100685.97
2023-01-01T10:24:36.368Z,100708.88
2023-01-01T10:27:07.289Z,100661.53
2023-01-01T10:29:44.345Z,100717.47
2023-01-01T10:32:20.503Z,100647.81
2023-01-01T10:34:52.268Z,100708.09
2023-01-01T10:37:22.020Z,100691.47
2023-01-01T10:39:52.825Z,100717.34
2023-01-01T10:42:22.082Z,100709.50
2023-01-01T10:44:54.442Z,100700.75
2023-01-01T10:47:28.793Z,100715.38
2023-01-01T10:50:00.522Z,100649.50
2023-01-01T10:52:32.886Z,100696.50
2023-01-01T10:55:09.737Z,100704.28
2023-01-01T10:57:41.173Z,100668.97
2023-01-01T11:00:25.253Z,100721.72
2023-01-01T11:03:15.656Z,100717.75
2023-01-01T11:06:02.991Z,100716.16
2023-01-01T11:08:33.946Z,100702.13
2023-01-01T11:11:05.248Z,100721.69
2023-01-01T11:13:35.755Z,100708.25
2023-01-01T11:16:13.250Z,100718.44
2023-01-01T11:18:44.177Z,100723.09
2023-01-01T11:21:21.941Z,100721.91
2023-01-01T11:23:54.075Z,100698.88
2023-01-01T11:26:28.124Z,100726.34
2023-01-01T11:29:02.581Z,100686.81
2023-01-01T11:31:37.653Z,100707.56
2023-01-01T11:34:30.259Z,100704.69
2023-01-01T11:37:19.951Z,100709.19
2023-01-01T11:39:51.632Z,100702.53
2023-01-01T11:42:25.648Z,100682.94
2023-01-01T11:44:58.853Z,100703.41
2023-01-01T11:47:31.823Z,100713.09
2023-01-01T11:50:05.997Z,100705.16
2023-01-01T11:52:39.334Z,100694.94
2023-01-01T11:55:19.804Z,100665.53
2023-01-01T11:58:00.807Z,100666.19
2023-01-01T12:00:33.599Z,100693.19
2023-01-01T12:03:14.049Z,100691.25
2023-01-01T12:05:49.849Z,100691.25
2023-01-01T12:08:28.755Z,100619.97
2023-01-01T12:11:06.122Z,100659.28
2023-01-01T12:13:46.620Z,100683.19
2023-01-01T12:16:21.625Z,100702.28
2023-01-01T12:19:03.451Z,100641.16
2023-01-01T12:21:37.677Z,100694.91
2023-01-01T12:24:12.972Z,100703.03
2023-01-01T12:26:58.336Z,100704.72
2023-01-01T12:29:49.998Z,100629.56
2023-01-01T12:32:29.294Z,100706.75
2023-01-01T12:35:06.337Z,100711.16
2023-01-01T12:37:46.313Z,100705.72
2023-01-01T12:41:07.849Z,100726.38
2023-01-01T12:43:45.508Z,100708.09
2023-01-01T12:46:28.712Z,100727.38
2023-01-01T12:49:31.820Z,100726.22
2023-01-01T12:52:13.817Z,100722.44
2023-01-01T12:55:21.484Z,100728.03
2023-01-01T12:57:56.795Z,100727.66
2023-01-01T13:00:27.282Z,100707.53
2023-01-01T13:03:02.001Z,100744.00
2023-01-01T13:05:39.036Z,100724.47
2023-01-01T13:08:09.063Z,100752.09
2023-01-01T13:10:41.699Z,100741.56
2023-01-01T13:13:13.143Z,100752.81
2023-01-01T13:15:51.003Z,100762.00
2023-01-01T13:18:36.376Z,100750.53
2023-01-01T13:21:09.013Z,100761.50
2023-01-01T13:23:55.131Z,100761.06
2023-01-01T13:26:41.992Z,100743.09
2023-01-01T13:29:34.284Z,100758.19
2023-01-01T13:32:13.988Z,100751.66
2023-01-01T13:35:06.131Z,100755.19
2023-01-01T13:37:46.342Z,100772.44
2023-01-01T13:40:53.047Z,100757.50
2023-01-01T13:43:30.444Z,100723.63
2023-01-01T13:46:13.361Z,100777.91
2023-01-01T13:49:21.263Z,100781.53
2023-01-01T13:52:05.942Z,100787.44
2023-01-01T13:55:09.292Z,100799.16
2023-01-01T13:58:16.091Z,100795.94
2023-01-01T14:01:09.438Z,100742.94
2023-01-01T14:03:48.033Z,100805.50
2023-01-01T14:06:30.017Z,100813.94
2023-01-01T14:09:06.913Z,100801.91
2023-01-01T14:11:36.628Z,100815.56
2023-01-01T14:14:24.414Z,100808.50
2023-01-01T14:16:55.341Z,100792.53
2023-01-01T14:19:25.632Z,100794.50
2023-01-01T14:21:56.056Z,100768.13
2023-01-01T14:24:29.308Z,100769.44
2023-01-01T14:26:59.412Z,100747.88
2023-01-01T14:29:31.912Z,100766.59
2023-01-01T14:32:12.917Z,100818.81
2023-01-01T14:34:46.138Z,100822.72
2023-01-01T14:37:24.638Z,100819.03
2023-01-01T14:40:16.184Z,100788.97
2023-01-01T14:42:47.750Z,100808.19
2023-01-01T14:45:18.995Z,100773.91
2023-01-01T14:47:50.784Z,100791.44
2023-01-01T14:50:25.635Z,100812.06
2023-01-01T14:52:59.223Z,100820.59
2023-01-01T14:55:40.681Z,100780.97
2023-01-01T14:58:17.353Z,100820.56
2023-01-01T15:00:47.133Z,100770.50
2023-01-01T15:03:18.222Z,100777.47
2023-01-01T15:05:59.490Z,100812.81
2023-01-01T15:08:29.294Z,100789.72
2023-01-01T15:11:00.206Z,100834.25
2023-01-01T15:13:30.039Z,100821.78
2023-01-01T15:16:17.662Z,100786.31
2023-01-01T15:18:59.071Z,100764.22
2023-01-01T15:21:39.027Z,100798.13
2023-01-01T15:24:14.028Z,100770.78
2023-01-01T15:26:51.891Z,100787.06
2023-01-01T15:29:28.728Z,100834.97
2023-01-01T15:32:00.380Z,100835.47
2023-01-01T15:34:32.654Z,100805.28
2023-01-01T15:37:16.688Z,100823.75
2023-01-01T15:39:51.557Z,100795.31
2023-01-01T15:42:33.551Z,100815.47
2023-01-01T15:45:56.983Z,100785.22
2023-01-01T15:48:55.494Z,100820.75
2023-01-01T15:51:31.071Z,100733.97
2023-01-01T15:54:05.119Z,100822.59
2023-01-01T15:56:40.474Z,100750.81
2023-01-01T15:59:23.583Z,100827.06
2023-01-01T16:02:05.768Z,100784.53
2023-01-01T16:04:35.592Z,100774.66
2023-01-01T16:07:05.443Z,100818.28
2023-01-01T16:09:36.477Z,100821.03
2023-01-01T16:12:06.004Z,100796.88
2023-01-01T16:14:38.335Z,100829.09
2023-01-01T16:17:08.189Z,100836.13
2023-01-01T16:19:44.273Z,100842.69
2023-01-01T16:22:23.184Z,100789.97
2023-01-01T16:25:19.916Z,100563.22
2023-01-01T16:27:49.275Z,100818.84
2023-01-01T16:30:20.120Z,100835.34
2023-01-01T16:32:49.365Z,100845.72
2023-01-01T16:35:18.704Z,100823.06
2023-01-01T16:37:48.238Z,100844.13
2023-01-01T16:40:20.267Z,100850.47
2023-01-01T16:42:49.824Z,100787.41
2023-01-01T16:45:20.382Z,100854.34
2023-01-01T16:47:49.644Z,100863.09
2023-01-01T16:50:19.267Z,100830.16
2023-01-01T16:52:48.644Z,100853.88
2023-01-01T16:55:18.119Z,100842.50
2023-01-01T16:57:49.092Z,100788.75
2023-01-01T17:00:20.448Z,100812.00
2023-01-01T17:03:11.514Z,100859.94
2023-01-01T17:05:44.766Z,100863.47
2023-01-01T17:08:14.244Z,100863.69
2023-01-01T17:10:43.431Z,100869.06
2023-01-01T17:13:12.455Z,100846.72
2023-01-01T17:15:43.064Z,100866.16
2023-01-01T17:18:13.193Z,100842.59
2023-01-01T17:20:44.271Z,100867.78
2023-01-01T17:23:14.007Z,100832.16
2023-01-01T17:25:43.647Z,100873.97
2023-01-01T17:28:13.270Z,100871.78
2023-01-01T17:30:44.239Z,100850.16
2023-01-01T17:33:13.854Z,100839.69
2023-01-01T17:35:45.093Z,100823.63
2023-01-01T17:38:16.963Z,100863.28
2023-01-01T17:40:49.995Z,100869.13
2023-01-01T17:43:19.399Z,100853.22
2023-01-01T17:45:50.172Z,100855.50
2023-01-01T17:48:20.022Z,100873.53
2023-01-01T17:50:49.634Z,100862.06
2023-01-01T17:53:19.207Z,100877.41
2023-01-01T17:55:48.931Z,100863.28
2023-01-01T17:58:21.256Z,100879.56
2023-01-01T18:00:53.656Z,100567.72
2023-01-01T18:03:23.857Z,100879.38
2023-01-01T18:05:57.225Z,100878.34
2023-01-01T18:08:28.197Z,100789.38
2023-01-01T18:10:58.401Z,100749.91
2023-01-01T18:13:28.406Z,100869.22
2023-01-01T18:16:02.677Z,100882.13
2023-01-01T18:18:32.753Z,100876.50
2023-01-01T18:21:09.154Z,100830.63
2023-01-01T18:24:52.830Z,100819.03
2023-01-01T18:27:29.213Z,100866.41
2023-01-01T18:29:59.700Z,100864.69
2023-01-01T18:32:31.117Z,100858.72
2023-01-01T18:35:00.649Z,100855.44
2023-01-01T18:37:30.344Z,100838.84
2023-01-01T18:40:01.391Z,100839.47
2023-01-01T18:42:41.112Z,100808.75
2023-01-01T18:45:16.675Z,100858.34
2023-01-01T18:47:47.632Z,100845.81
2023-01-01T18:50:24.052Z,100820.88
2023-01-01T18:53:01.219Z,100822.84
2023-01-01T18:55:32.517Z,100814.19
2023-01-01T18:58:17.312Z,100868.72
2023-01-01T19:00:47.057Z,100809.19
2023-01-01T19:03:28.621Z,100870.78
2023-01-01T19:06:00.362Z,100845.72
2023-01-01T19:08:31.221Z,100881.47
2023-01-01T19:11:03.744Z,100863.22
2023-01-01T19:13:35.463Z,100762.44
2023-01-01T19:16:24.429Z,100806.50
2023-01-01T19:18:58.648Z,100880.75
2023-01-01T19:21:28.072Z,100880.50
2023-01-01T19:24:00.991Z,100838.03
2023-01-01T19:26:33.984Z,100784.81
2023-01-01T19:29:13.299Z,100781.91
2023-01-01T19:31:43.068Z,100815.28
2023-01-01T19:34:13.796Z,100883.91
2023-01-01T19:36:43.715Z,100875.16
2023-01-01T19:39:13.299Z,100854.16
2023-01-01T19:41:43.110Z,100831.22
2023-01-01T19:44:12.810Z,100888.28
2023-01-01T19:46:42.378Z,100888.25
2023-01-01T19:49:14.290Z,100878.41
2023-01-01T19:51:44.432Z,100888.50
2023-01-01T19:54:13.993Z,100868.81
2023-01-01T19:56:43.420Z,100847.81
2023-01-01T19:59:12.617Z,100870.59
2023-01-01T20:01:41.956Z,100866.75
2023-01-01T20:04:11.951Z,100877.19
2023-01-01T20:06:44.767Z,100865.25
2023-01-01T20:09:14.554Z,100860.06
2023-01-01T20:11:46.047Z,100892.97
2023-01-01T20:14:17.651Z,100806.63
2023-01-01T20:16:47.994Z,100808.63
2023-01-01T20:19:17.898Z,100829.31
2023-01-01T20:22:06.370Z,100780.97
2023-01-01T20:24:37.024Z,100847.66
2023-01-01T20:27:09.201Z,100922.00
2023-01-01T20:29:39.012Z,100915.47
2023-01-01T20:32:12.798Z,100873.56
2023-01-01T20:34:42.755Z,100893.38
2023-01-01T20:37:31.237Z,100921.03
2023-01-01T20:40:00.745Z,100932.97
2023-01-01T20:42:29.813Z,100937.78
2023-01-01T20:44:59.206Z,100936.06
2023-01-01T20:47:31.156Z,100931.69
2023-01-01T20:50:01.905Z,100896.63
2023-01-01T20:52:32.388Z,100909.03
2023-01-01T20:55:01.739Z,100893.59
2023-01-01T20:57:31.708Z,100897.56
2023-01-01T21:00:01.237Z,100940.41
2023-01-01T21:02:30.968Z,100930.75
2023-01-01T21:05:01.795Z,100939.22
2023-01-01T21:07:32.776Z,100927.16
2023-01-01T21:10:02.029Z,100926.03
2023-01-01T21:12:31.941Z,100898.19
2023-01-01T21:15:02.608Z,100935.47
2023-01-01T21:17:35.104Z,100931.69
2023-01-01T21:20:04.442Z,100940.06
2023-01-01T21:22:35.552Z,100934.91
2023-01-01T21:25:49.233Z,100926.69
2023-01-01T21:28:07.287Z,100948.44
2023-01-01T21:30:36.973Z,100942.38
2023-01-01T21:33:15.881Z,100945.53
2023-01-01T21:35:45.237Z,100943.00
2023-01-01T21:38:20.321Z,100959.06
2023-01-01T21:40:52.817Z,100946.09
2023-01-01T21:43:33.708Z,100944.16
2023-01-01T21:46:35.749Z,100955.66
2023-01-01T21:49:13.442Z,100957.03
2023-01-01T21:51:48.261Z,100951.44
2023-01-01T21:54:23.928Z,100968.09
2023-01-01T21:56:58.658Z,100966.38
2023-01-01T21:59:36.807Z,100927.38
2023-01-01T22:02:38.427Z,100965.94
2023-01-01T22:05:29.647Z,100958.13
2023-01-01T22:08:00.292Z,100942.59
2023-01-01T22:10:36.551Z,100928.66
2023-01-01T22:13:18.130Z,100948.09
2023-01-01T22:15:47.713Z,100892.44
2023-01-01T22:18:22.317Z,100930.09
2023-01-01T22:20:52.507Z,100926.00
2023-01-01T22:23:43.384Z,100943.19
2023-01-01T22:26:27.829Z,100923.84
2023-01-01T22:29:00.946Z,100875.31
2023-01-01T22:31:33.521Z,100908.13
2023-01-01T22:34:06.758Z,100930.50
2023-01-01T22:36:37.879Z,100936.88
2023-01-01T22:39:15.790Z,100920.53
2023-01-01T22:41:51.955Z,100934.22
2023-01-01T22:44:21.346Z,100934.25
2023-01-01T22:46:50.523Z,100905.66
2023-01-01T22:49:25.522Z,100961.81
2023-01-01T22:51:56.356Z,100956.03
2023-01-01T22:54:25.787Z,100783.16
2023-01-01T22:56:56.238Z,100964.56
2023-01-01T22:59:25.570Z,100982.75
2023-01-01T23:01:54.915Z,100972.38
2023-01-01T23:04:24.145Z,100981.88
2023-01-01T23:06:54.155Z,100961.38
2023-01-01T23:09:24.236Z,100995.09
2023-01-01T23:11:56.456Z,100987.84
2023-01-01T23:14:43.252Z,100994.91
2023-01-01T23:17:12.715Z,100994.47
2023-01-01T23:19:44.357Z,100905.59
2023-01-01T23:22:15.841Z,100997.63
2023-01-01T23:24:46.290Z,100963.88
2023-01-01T23:27:16.734Z,100977.47
2023-01-01T23:29:48.369Z,100999.97
2023-01-01T23:32:18.093Z,100967.53
2023-01-01T23:34:48.529Z,100989.50
2023-01-01T23:37:17.812Z,101001.69
2023-01-01T23:39:47.019Z,101000.09
2023-01-01T23:42:17.965Z,100999.84
2023-01-01T23:44:47.076Z,100971.97
2023-01-01T23:47:16.324Z,100933.06
2023-01-01T23:49:45.520Z,100985.97
2023-01-01T23:52:14.874Z,100996.97
2023-01-01T23:54:44.118Z,100987.75
2023-01-01T23:57:14.329Z,100998.41
2023-01-01T23:59:44.700Z,100953.66
